createdAt,value
2022-10-05T00:01:34.855Z,101251.06
2022-10-05T00:04:15.334Z,101259.69
2022-10-05T00:06:58.364Z,101257.06
2022-10-05T00:09:24.686Z,101248.28
2022-10-05T00:11:51.163Z,101256.88
2022-10-05T00:14:27.659Z,101252.50
2022-10-05T00:16:55.217Z,101249.00
2022-10-05T00:19:28.681Z,101247.25
2022-10-05T00:22:03.016Z,101259.41
2022-10-05T00:24:29.745Z,101259.53
2022-10-05T00:26:58.218Z,101256.16
2022-10-05T00:29:25.023Z,101250.00
2022-10-05T00:31:51.430Z,101260.34
2022-10-05T00:34:17.923Z,101258.50
2022-10-05T00:36:45.414Z,101248.06
2022-10-05T00:39:12.004Z,101248.09
2022-10-05T00:41:58.193Z,101248.16
2022-10-05T00:45:06.790Z,101240.38
2022-10-05T00:47:36.025Z,101237.84
2022-10-05T00:50:20.552Z,101241.34
2022-10-05T00:53:11.326Z,101244.72
2022-10-05T00:56:04.884Z,101242.00
2022-10-05T00:59:08.205Z,101243.69
2022-10-05T01:01:34.552Z,101234.16
2022-10-05T01:04:26.863Z,101238.47
2022-10-05T01:07:38.061Z,101228.84
2022-10-05T01:10:10.176Z,101208.78
2022-10-05T01:12:39.584Z,101211.50
2022-10-05T01:15:23.016Z,101207.09
2022-10-05T01:18:00.954Z,101200.16
2022-10-05T01:20:35.706Z,101194.91
2022-10-05T01:23:09.528Z,101194.03
2022-10-05T01:25:44.559Z,101195.78
2022-10-05T01:28:25.935Z,101200.06
2022-10-05T01:31:03.442Z,101205.34
2022-10-05T01:33:46.589Z,101205.25
2022-10-05T01:36:25.228Z,101193.84
2022-10-05T01:39:16.372Z,101189.53
2022-10-05T01:41:49.196Z,101177.41
2022-10-05T01:44:20.247Z,101173.00
2022-10-05T01:46:57.678Z,101167.78
2022-10-05T01:49:42.737Z,101158.16
2022-10-05T01:52:26.638Z,101158.94
2022-10-05T01:55:27.953Z,101160.78
2022-10-05T01:58:07.355Z,101168.56
2022-10-05T02:00:45.497Z,101178.91
2022-10-05T02:03:19.213Z,101175.41
2022-10-05T02:05:58.615Z,101182.28
2022-10-05T02:08:31.107Z,101178.72
2022-10-05T02:11:12.789Z,101181.38
2022-10-05T02:13:47.868Z,101180.44
2022-10-05T02:16:26.246Z,101173.44
2022-10-05T02:19:03.855Z,101171.72
2022-10-05T02:21:34.050Z,101165.59
2022-10-05T02:24:06.798Z,101163.03
2022-10-05T02:26:36.289Z,101163.03
2022-10-05T02:29:06.479Z,101159.56
2022-10-05T02:31:50.464Z,101163.03
2022-10-05T02:34:31.951Z,101155.19
2022-10-05T02:37:18.044Z,101163.88
2022-10-05T02:39:50.266Z,101165.59
2022-10-05T02:42:29.949Z,101163.84
2022-10-05T02:45:19.086Z,101155.19
2022-10-05T02:48:02.032Z,101152.63
2022-10-05T02:50:49.759Z,101147.34
2022-10-05T02:53:27.003Z,101136.88
2022-10-05T02:55:56.111Z,101140.28
2022-10-05T02:58:27.174Z,101136.81
2022-10-05T03:01:20.287Z,101136.97
2022-10-05T03:04:10.672Z,101135.06
2022-10-05T03:07:04.146Z,101123.00
2022-10-05T03:09:39.294Z,101122.94
2022-10-05T03:12:17.910Z,101124.53
2022-10-05T03:14:50.354Z,101112.38
2022-10-05T03:17:22.380Z,101114.16
2022-10-05T03:19:57.960Z,101116.81
2022-10-05T03:22:47.328Z,101111.66
2022-10-05T03:25:36.775Z,101108.09
2022-10-05T03:28:14.121Z,101123.00
2022-10-05T03:30:50.109Z,101116.75
2022-10-05T03:33:44.501Z,101109.88
2022-10-05T03:36:25.777Z,101111.44
2022-10-05T03:39:14.259Z,101110.50
2022-10-05T03:41:47.299Z,101108.72
2022-10-05T03:44:32.152Z,101106.91
2022-10-05T03:47:28.566Z,101104.41
2022-10-05T03:50:14.481Z,101104.38
2022-10-05T03:53:06.580Z,101094.94
2022-10-05T03:55:39.277Z,101104.44
2022-10-05T03:58:13.494Z,101104.38
2022-10-05T04:00:44.964Z,101099.13
2022-10-05T04:03:18.726Z,101096.34
2022-10-05T04:05:55.366Z,101086.72
2022-10-05T04:08:50.549Z,101090.31
2022-10-05T04:11:26.363Z,101088.63
2022-10-05T04:14:02.466Z,101083.41
2022-10-05T04:16:34.517Z,101082.53
2022-10-05T04:19:28.603Z,101085.22
2022-10-05T04:22:07.985Z,101097.44
2022-10-05T04:24:42.423Z,101097.31
2022-10-05T04:27:21.991Z,101089.47
2022-10-05T04:29:58.197Z,101086.91
2022-10-05T04:32:41.467Z,101086.91
2022-10-05T04:35:15.743Z,101090.38
2022-10-05T04:37:50.311Z,101092.03
2022-10-05T04:40:35.431Z,101085.81
2022-10-05T04:43:17.288Z,101081.34
2022-10-05T04:46:45.967Z,101084.03
2022-10-05T04:49:43.496Z,101078.06
2022-10-05T04:52:26.171Z,101073.72
2022-10-05T04:55:30.358Z,101071.19
2022-10-05T04:58:20.073Z,101069.41
2022-10-05T05:00:57.463Z,101072.00
2022-10-05T05:04:06.529Z,101072.03
2022-10-05T05:06:51.277Z,101068.56
2022-10-05T05:09:24.293Z,101071.03
2022-10-05T05:12:13.373Z,101070.16
2022-10-05T05:15:01.060Z,101074.38
2022-10-05T05:17:33.298Z,101076.25
2022-10-05T05:20:28.619Z,101080.47
2022-10-05T05:23:11.908Z,101068.28
2022-10-05T05:25:57.490Z,101066.66
2022-10-05T05:28:42.210Z,101067.53
2022-10-05T05:31:38.923Z,101070.09
2022-10-05T05:34:18.245Z,101074.50
2022-10-05T05:37:06.161Z,101067.38
2022-10-05T05:39:45.953Z,101061.44
2022-10-05T05:42:47.853Z,101063.13
2022-10-05T05:45:38.991Z,101056.28
2022-10-05T05:48:15.512Z,101049.38
2022-10-05T05:50:55.099Z,101049.31
2022-10-05T05:53:28.492Z,101051.91
2022-10-05T05:56:25.047Z,101054.50
2022-10-05T05:59:20.180Z,101055.44
2022-10-05T06:01:54.016Z,101064.88
2022-10-05T06:04:35.825Z,101055.19
2022-10-05T06:07:03.546Z,101062.13
2022-10-05T06:09:45.947Z,101054.38
2022-10-05T06:12:24.145Z,101052.66
2022-10-05T06:15:03.271Z,101043.06
2022-10-05T06:17:56.096Z,101039.59
2022-10-05T06:20:28.332Z,101048.28
2022-10-05T06:23:00.520Z,101053.47
2022-10-05T06:25:49.198Z,101056.91
2022-10-05T06:28:19.250Z,101054.41
2022-10-05T06:31:11.446Z,101053.41
2022-10-05T06:33:44.011Z,101048.22
2022-10-05T06:36:34.845Z,101048.16
2022-10-05T06:39:28.939Z,101055.88
2022-10-05T06:42:08.882Z,101048.09
2022-10-05T06:45:12.078Z,101044.56
2022-10-05T06:47:47.348Z,101052.34
2022-10-05T06:50:31.438Z,101054.91
2022-10-05T06:53:24.268Z,101057.50
2022-10-05T06:56:01.192Z,101046.06
2022-10-05T06:58:50.191Z,101047.06
2022-10-05T07:01:32.910Z,101039.97
2022-10-05T07:04:21.216Z,101033.84
2022-10-05T07:06:59.940Z,101042.25
2022-10-05T07:10:16.953Z,101038.78
2022-10-05T07:13:05.938Z,101040.56
2022-10-05T07:15:47.214Z,101046.63
2022-10-05T07:18:41.643Z,101043.13
2022-10-05T07:21:39.214Z,101044.72
2022-10-05T07:24:48.751Z,101036.69
2022-10-05T07:27:24.981Z,101028.03
2022-10-05T07:30:05.619Z,101034.84
2022-10-05T07:32:56.736Z,101031.94
2022-10-05T07:36:09.541Z,101039.69
2022-10-05T07:38:58.857Z,101042.09
2022-10-05T07:41:36.922Z,101039.34
2022-10-05T07:44:24.849Z,101033.41
2022-10-05T07:46:56.627Z,101033.38
2022-10-05T07:49:35.503Z,101043.72
2022-10-05T07:52:14.009Z,101036.56
2022-10-05T07:54:43.301Z,101026.06
2022-10-05T07:57:15.804Z,101028.00
2022-10-05T07:59:58.028Z,101025.31
2022-10-05T08:02:44.335Z,101029.53
2022-10-05T08:05:25.052Z,101039.19
2022-10-05T08:07:59.217Z,101034.78
2022-10-05T08:10:50.500Z,101041.72
2022-10-05T08:13:24.351Z,101037.31
2022-10-05T08:15:55.858Z,101040.66
2022-10-05T08:18:46.594Z,101039.56
2022-10-05T08:21:16.125Z,101046.47
2022-10-05T08:23:57.929Z,101053.16
2022-10-05T08:26:48.705Z,101050.56
2022-10-05T08:29:29.698Z,101052.97
2022-10-05T08:32:01.259Z,101047.41
2022-10-05T08:34:48.673Z,101045.59
2022-10-05T08:37:27.364Z,101044.69
2022-10-05T08:40:15.377Z,101055.34
2022-10-05T08:42:59.947Z,101042.97
2022-10-05T08:46:06.069Z,101041.03
2022-10-05T08:49:01.001Z,101040.88
2022-10-05T08:52:20.802Z,101042.53
2022-10-05T08:55:13.589Z,101048.50
2022-10-05T08:58:12.264Z,101052.63
2022-10-05T09:00:45.914Z,101045.50
2022-10-05T09:03:34.320Z,101050.81
2022-10-05T09:06:38.323Z,101040.13
2022-10-05T09:09:44.057Z,101051.03
2022-10-05T09:12:44.505Z,101043.81
2022-10-05T09:15:29.599Z,101044.66
2022-10-05T09:18:23.572Z,101038.75
2022-10-05T09:20:53.790Z,101048.34
2022-10-05T09:23:43.302Z,101040.47
2022-10-05T09:26:40.439Z,101029.66
2022-10-05T09:29:44.295Z,101023.25
2022-10-05T09:32:44.297Z,101026.19
2022-10-05T09:35:39.118Z,101018.13
2022-10-05T09:38:13.159Z,101015.63
2022-10-05T09:41:17.144Z,101004.25
2022-10-05T09:44:09.681Z,101009.38
2022-10-05T09:46:39.129Z,101005.66
2022-10-05T09:49:40.716Z,101004.53
2022-10-05T09:52:47.268Z,101004.88
2022-10-05T09:55:49.041Z,101009.81
2022-10-05T09:58:23.021Z,100999.50
2022-10-05T10:01:33.339Z,101003.19
2022-10-05T10:04:12.698Z,100995.81
2022-10-05T10:06:54.710Z,101002.56
2022-10-05T10:09:45.803Z,100998.63
2022-10-05T10:12:24.324Z,101004.09
2022-10-05T10:15:01.934Z,101003.81
2022-10-05T10:18:03.198Z,100996.91
2022-10-05T10:20:53.123Z,100991.81
2022-10-05T10:23:48.091Z,100988.22
2022-10-05T10:26:30.444Z,100994.34
2022-10-05T10:29:17.697Z,100993.69
2022-10-05T10:32:03.110Z,100982.56
2022-10-05T10:34:38.172Z,100989.72
2022-10-05T10:37:59.143Z,100980.25
2022-10-05T10:40:37.539Z,100993.41
2022-10-05T10:43:35.829Z,100985.34
2022-10-05T10:46:18.559Z,100989.78
2022-10-05T10:49:25.028Z,100992.97
2022-10-05T10:52:09.706Z,100986.03
2022-10-05T10:55:02.599Z,100981.66
2022-10-05T10:57:52.059Z,100992.22
2022-10-05T11:00:37.286Z,100993.91
2022-10-05T11:03:44.650Z,100991.16
2022-10-05T11:06:41.841Z,100998.94
2022-10-05T11:09:24.422Z,100993.00
2022-10-05T11:12:34.443Z,100983.22
2022-10-05T11:15:16.381Z,100988.66
2022-10-05T11:18:13.311Z,100977.34
2022-10-05T11:20:56.405Z,100975.56
2022-10-05T11:23:29.486Z,100974.84
2022-10-05T11:26:16.997Z,100979.09
2022-10-05T11:29:17.770Z,100970.16
2022-10-05T11:32:02.547Z,100972.00
2022-10-05T11:34:54.358Z,100971.44
2022-10-05T11:37:58.645Z,100964.41
2022-10-05T11:40:47.607Z,100964.34
2022-10-05T11:43:21.564Z,100965.97
2022-10-05T11:45:47.823Z,100959.97
2022-10-05T11:48:41.374Z,100959.28
2022-10-05T11:51:34.241Z,100958.13
2022-10-05T11:54:03.210Z,100956.84
2022-10-05T11:56:44.751Z,100947.09
2022-10-05T11:59:30.078Z,100942.41
2022-10-05T12:02:24.680Z,100939.41
2022-10-05T12:05:06.879Z,100937.69
2022-10-05T12:07:47.504Z,100933.28
2022-10-05T12:10:32.482Z,100937.63
2022-10-05T12:13:04.877Z,100924.56
2022-10-05T12:15:50.131Z,100919.25
2022-10-05T12:18:31.725Z,100912.94
2022-10-05T12:21:10.541Z,100918.09
2022-10-05T12:23:49.563Z,100911.13
2022-10-05T12:26:40.535Z,100913.66
2022-10-05T12:29:35.739Z,100906.28
2022-10-05T12:32:21.457Z,100900.00
2022-10-05T12:35:01.656Z,100901.19
2022-10-05T12:37:43.954Z,100899.75
2022-10-05T12:40:47.704Z,100901.81
2022-10-05T12:43:46.393Z,100891.66
2022-10-05T12:46:34.212Z,100889.81
2022-10-05T12:50:02.416Z,100886.53
2022-10-05T12:52:31.874Z,100882.00
2022-10-05T12:55:18.421Z,100885.47
2022-10-05T12:57:44.660Z,100874.78
2022-10-05T13:00:19.045Z,100879.97
2022-10-05T13:03:03.176Z,100876.97
2022-10-05T13:05:44.663Z,100877.69
2022-10-05T13:08:39.591Z,100874.59
2022-10-05T13:11:15.343Z,100873.00
2022-10-05T13:13:52.887Z,100861.34
2022-10-05T13:16:55.271Z,100860.38
2022-10-05T13:19:40.678Z,100855.34
2022-10-05T13:22:16.837Z,100853.22
2022-10-05T13:24:54.748Z,100859.78
2022-10-05T13:27:29.449Z,100858.06
2022-10-05T13:30:12.238Z,100854.50
2022-10-05T13:32:53.715Z,100849.50
2022-10-05T13:35:40.093Z,100849.34
2022-10-05T13:38:37.556Z,100846.69
2022-10-05T13:41:23.564Z,100846.38
2022-10-05T13:44:04.619Z,100849.34
2022-10-05T13:46:48.025Z,100839.75
2022-10-05T13:49:23.169Z,100844.31
2022-10-05T13:52:09.946Z,100841.09
2022-10-05T13:54:47.355Z,100844.47
2022-10-05T14:00:26.304Z,100838.53
2022-10-05T14:02:56.446Z,100836.56
2022-10-05T14:05:26.775Z,100837.94
2022-10-05T14:08:09.961Z,100831.16
2022-10-05T14:10:38.989Z,100839.03
2022-10-05T14:13:29.148Z,100838.41
2022-10-05T14:16:06.035Z,100834.84
2022-10-05T14:18:36.247Z,100832.19
2022-10-05T14:21:08.751Z,100830.03
2022-10-05T14:23:35.161Z,100835.22
2022-10-05T14:26:04.463Z,100822.63
2022-10-05T14:28:34.353Z,100828.75
2022-10-05T14:31:16.213Z,100836.34
2022-10-05T14:33:42.791Z,100847.56
2022-10-05T14:36:22.408Z,100834.25
2022-10-05T14:38:56.141Z,100839.25
2022-10-05T14:41:27.445Z,100836.63
2022-10-05T14:44:04.048Z,100838.66
2022-10-05T14:46:33.664Z,100832.56
2022-10-05T14:49:17.167Z,100833.19
2022-10-05T14:51:43.633Z,100833.03
2022-10-05T14:54:40.001Z,100833.88
2022-10-05T14:57:37.400Z,100829.59
2022-10-05T15:00:14.241Z,100826.09
2022-10-05T15:02:54.280Z,100822.50
2022-10-05T15:05:38.938Z,100814.72
2022-10-05T15:08:20.885Z,100822.81
2022-10-05T15:11:07.388Z,100819.91
2022-10-05T15:13:39.274Z,100812.81
2022-10-05T15:16:18.340Z,100808.97
2022-10-05T15:18:53.589Z,100817.28
2022-10-05T15:21:36.450Z,100809.81
2022-10-05T15:24:09.192Z,100811.00
2022-10-05T15:26:50.584Z,100803.09
2022-10-05T15:29:42.288Z,100798.16
2022-10-05T15:32:33.399Z,100800.84
2022-10-05T15:35:35.084Z,100786.69
2022-10-05T15:38:08.845Z,100781.25
2022-10-05T15:40:45.903Z,100782.34
2022-10-05T15:43:19.409Z,100773.88
2022-10-05T15:46:02.566Z,100778.03
2022-10-05T15:49:08.308Z,100764.19
2022-10-05T15:51:55.238Z,100764.75
2022-10-05T15:54:42.063Z,100761.44
2022-10-05T15:57:23.380Z,100758.38
2022-10-05T16:00:04.266Z,100761.97
2022-10-05T16:02:41.429Z,100757.63
2022-10-05T16:05:51.179Z,100755.31
2022-10-05T16:08:53.874Z,100759.78
2022-10-05T16:11:44.612Z,100775.66
2022-10-05T16:14:29.098Z,100772.25
2022-10-05T16:17:11.407Z,100774.97
2022-10-05T16:19:51.600Z,100772.38
2022-10-05T16:22:23.637Z,100773.31
2022-10-05T16:24:56.809Z,100767.00
2022-10-05T16:27:52.650Z,100773.06
2022-10-05T16:30:22.354Z,100775.56
2022-10-05T16:32:57.657Z,100776.03
2022-10-05T16:35:53.478Z,100780.66
2022-10-05T16:38:28.563Z,100782.72
2022-10-05T16:41:13.525Z,100782.22
2022-10-05T16:43:49.338Z,100777.16
2022-10-05T16:46:44.109Z,100787.81
2022-10-05T16:49:16.632Z,100794.19
2022-10-05T16:52:00.179Z,100792.56
2022-10-05T16:54:37.135Z,100793.69
2022-10-05T16:57:23.643Z,100803.38
2022-10-05T16:59:52.914Z,100811.41
2022-10-05T17:02:28.097Z,100806.28
2022-10-05T17:05:14.163Z,100820.19
2022-10-05T17:08:01.396Z,100821.69
2022-10-05T17:10:44.973Z,100828.19
2022-10-05T17:13:37.259Z,100824.50
2022-10-05T17:16:21.239Z,100835.28
2022-10-05T17:19:05.752Z,100840.63
2022-10-05T17:21:46.155Z,100836.84
2022-10-05T17:24:24.702Z,100836.72
2022-10-05T17:27:12.700Z,100844.34
2022-10-05T17:29:47.477Z,100848.91
2022-10-05T17:32:16.897Z,100850.56
2022-10-05T17:35:01.366Z,100857.41
2022-10-05T17:37:27.630Z,100846.84
2022-10-05T17:39:56.043Z,100855.84
2022-10-05T17:42:31.324Z,100848.78
2022-10-05T17:44:59.849Z,100855.81
2022-10-05T17:47:58.833Z,100850.91
2022-10-05T17:51:09.941Z,100854.47
2022-10-05T17:54:00.915Z,100850.78
2022-10-05T17:56:28.322Z,100858.94
2022-10-05T17:58:54.908Z,100852.97
2022-10-05T18:01:30.565Z,100851.13
2022-10-05T18:04:25.524Z,100847.25
2022-10-05T18:06:54.834Z,100853.81
2022-10-05T18:09:21.581Z,100844.59
2022-10-05T18:12:16.028Z,100847.47
2022-10-05T18:15:06.476Z,100849.41
2022-10-05T18:17:41.874Z,100844.38
2022-10-05T18:20:26.505Z,100842.66
2022-10-05T18:23:02.914Z,100842.44
2022-10-05T18:25:52.943Z,100836.38
2022-10-05T18:28:39.127Z,100828.50
2022-10-05T18:31:40.212Z,100827.53
2022-10-05T18:34:42.501Z,100824.00
2022-10-05T18:37:33.501Z,100816.13
2022-10-05T18:40:26.814Z,100809.72
2022-10-05T18:43:13.697Z,100812.63
2022-10-05T18:46:12.941Z,100806.38
2022-10-05T18:48:54.247Z,100804.44
2022-10-05T18:51:29.570Z,100798.13
2022-10-05T18:54:31.377Z,100800.13
2022-10-05T18:57:02.153Z,100808.97
2022-10-05T18:59:52.019Z,100806.22
2022-10-05T19:02:28.513Z,100803.72
2022-10-05T19:05:45.787Z,100807.47
2022-10-05T19:08:32.835Z,100812.84
2022-10-05T19:11:13.423Z,100802.56
2022-10-05T19:13:52.018Z,100806.16
2022-10-05T19:16:31.296Z,100810.00
2022-10-05T19:19:39.861Z,100808.97
2022-10-05T19:22:12.236Z,100808.91
2022-10-05T19:24:48.099Z,100815.09
2022-10-05T19:27:34.812Z,100815.25
2022-10-05T19:30:25.094Z,100810.16
2022-10-05T19:33:11.696Z,100810.44
2022-10-05T19:36:12.041Z,100808.63
2022-10-05T19:38:48.603Z,100799.94
2022-10-05T19:41:19.844Z,100792.97
2022-10-05T19:43:46.068Z,100796.53
2022-10-05T19:46:40.428Z,100797.50
2022-10-05T19:49:09.391Z,100801.22
2022-10-05T19:51:48.305Z,100811.94
2022-10-05T19:54:26.738Z,100820.81
2022-10-05T19:56:54.457Z,100819.16
2022-10-05T19:59:25.274Z,100824.28
2022-10-05T20:01:56.395Z,100819.28
2022-10-05T20:04:35.718Z,100819.09
2022-10-05T20:07:02.680Z,100826.97
2022-10-05T20:09:29.935Z,100832.41
2022-10-05T20:11:56.728Z,100837.66
2022-10-05T20:14:33.598Z,100837.34
2022-10-05T20:17:57.212Z,100831.13
2022-10-05T20:20:36.913Z,100843.19
2022-10-05T20:23:38.530Z,100840.47
2022-10-05T20:26:23.911Z,100839.81
2022-10-05T20:28:50.810Z,100839.72
2022-10-05T20:31:19.851Z,100840.47
2022-10-05T20:33:47.521Z,100849.25
2022-10-05T20:36:13.832Z,100849.31
2022-10-05T20:38:41.301Z,100842.06
2022-10-05T20:41:07.947Z,100841.94
2022-10-05T20:43:35.669Z,100850.81
2022-10-05T20:46:02.426Z,100829.47
2022-10-05T20:48:29.049Z,100830.97
2022-10-05T20:50:55.693Z,100825.59
2022-10-05T20:53:21.972Z,100834.88
2022-10-05T20:55:48.271Z,100839.66
2022-10-05T20:58:14.558Z,100832.41
2022-10-05T21:00:59.250Z,100835.59
2022-10-05T21:03:25.601Z,100840.84
2022-10-05T21:05:51.868Z,100835.97
2022-10-05T21:08:18.768Z,100830.22
2022-10-05T21:10:45.060Z,100828.25
2022-10-05T21:13:11.390Z,100831.63
2022-10-05T21:15:38.173Z,100821.22
2022-10-05T21:18:04.485Z,100819.53
2022-10-05T21:20:30.791Z,100821.59
2022-10-05T21:22:57.092Z,100826.00
2022-10-05T21:25:23.381Z,100824.09
2022-10-05T21:27:50.062Z,100820.63
2022-10-05T21:30:16.380Z,100825.19
2022-10-05T21:32:44.582Z,100831.44
2022-10-05T21:35:11.303Z,100836.91
2022-10-05T21:37:37.594Z,100843.06
2022-10-05T21:40:04.222Z,100841.50
2022-10-05T21:42:30.952Z,100844.13
2022-10-05T21:44:57.260Z,100844.72
2022-10-05T21:47:23.618Z,100845.28
2022-10-05T21:49:49.934Z,100844.59
2022-10-05T21:52:16.307Z,100875.22
2022-10-05T21:54:42.655Z,100859.31
2022-10-05T21:57:11.434Z,100870.53
2022-10-05T21:59:37.819Z,100861.72
2022-10-05T22:02:04.269Z,100877.28
2022-10-05T22:04:30.632Z,100873.75
2022-10-05T22:06:56.997Z,100867.53
2022-10-05T22:09:23.442Z,100869.38
2022-10-05T22:11:51.210Z,100870.28
2022-10-05T22:14:17.538Z,100881.72
2022-10-05T22:16:44.310Z,100863.19
2022-10-05T22:19:16.063Z,100880.75
2022-10-05T22:21:42.429Z,100879.91
2022-10-05T22:24:11.426Z,100879.03
2022-10-05T22:26:38.125Z,100885.16
2022-10-05T22:29:04.839Z,100885.94
2022-10-05T22:31:31.196Z,100879.91
2022-10-05T22:33:57.613Z,100882.53
2022-10-05T22:36:24.023Z,100892.00
2022-10-05T22:38:50.428Z,100883.50
2022-10-05T22:41:18.172Z,100889.56
2022-10-05T22:43:44.575Z,100882.47
2022-10-05T22:46:12.574Z,100907.00
2022-10-05T22:48:39.497Z,100900.03
2022-10-05T22:51:06.652Z,100904.31
2022-10-05T22:53:33.525Z,100904.25
2022-10-05T22:56:13.779Z,100913.09
2022-10-05T22:58:41.407Z,100928.13
2022-10-05T23:01:10.542Z,100921.19
2022-10-05T23:03:37.344Z,100945.28
2022-10-05T23:06:09.779Z,100967.84
2022-10-05T23:08:37.814Z,100987.03
2022-10-05T23:11:05.854Z,101003.56
2022-10-05T23:13:33.260Z,100984.03
2022-10-05T23:16:06.441Z,100989.63
2022-10-05T23:18:33.637Z,100998.00
2022-10-05T23:21:00.079Z,101015.78
2022-10-05T23:23:27.353Z,101007.13
2022-10-05T23:25:59.987Z,101008.66
2022-10-05T23:28:27.836Z,101019.47
2022-10-05T23:31:02.757Z,101013.22
2022-10-05T23:33:29.222Z,101010.63
2022-10-05T23:36:08.141Z,101003.03
2022-10-05T23:38:35.622Z,101013.47
2022-10-05T23:41:02.721Z,101019.56
2022-10-05T23:43:29.366Z,101028.22
2022-10-05T23:45:56.287Z,101036.00
2022-10-05T23:48:22.836Z,101021.13
2022-10-05T23:50:49.934Z,101035.19
2022-10-05T23:53:17.496Z,101033.56
2022-10-05T23:55:44.463Z,101048.25
2022-10-05T23:58:11.789Z,101056.47
